sensor_id;sensor_type;location;lat;lon;timestamp;P1;durP1;ratioP1;P2;durP2;ratioP2
58758;SDS011;46777;47.482;19.054;2022-07-23T00:00:38;9.90;;;8.90;;
58758;SDS011;46777;47.482;19.054;2022-07-23T00:03:22;10.27;;;8.77;;
58758;SDS011;46777;47.482;19.054;2022-07-23T00:06:07;9.82;;;8.82;;
58758;SDS011;46777;47.482;19.054;2022-07-23T00:08:52;9.63;;;8.63;;
58758;SDS011;46777;47.482;19.054;2022-07-23T00:11:37;9.95;;;8.93;;
58758;SDS011;46777;47.482;19.054;2022-07-23T00:14:21;9.63;;;8.73;;
58758;SDS011;46777;47.482;19.054;2022-07-23T00:17:06;10.65;;;9.15;;
58758;SDS011;46777;47.482;19.054;2022-07-23T00:19:51;10.30;;;9.15;;
58758;SDS011;46777;47.482;19.054;2022-07-23T00:22:45;10.15;;;9.10;;
58758;SDS011;46777;47.482;19.054;2022-07-23T00:25:34;9.65;;;8.60;;
58758;SDS011;46777;47.482;19.054;2022-07-23T00:28:18;13.80;;;9.23;;
58758;SDS011;46777;47.482;19.054;2022-07-23T00:31:03;9.90;;;8.85;;
58758;SDS011;46777;47.482;19.054;2022-07-23T00:33:48;10.05;;;8.95;;
58758;SDS011;46777;47.482;19.054;2022-07-23T00:36:33;10.15;;;9.20;;
58758;SDS011;46777;47.482;19.054;2022-07-23T00:39:18;9.88;;;9.05;;
58758;SDS011;46777;47.482;19.054;2022-07-23T00:42:05;9.85;;;8.85;;
58758;SDS011;46777;47.482;19.054;2022-07-23T00:44:50;9.52;;;8.52;;
58758;SDS011;46777;47.482;19.054;2022-07-23T00:47:35;10.07;;;9.02;;
58758;SDS011;46777;47.482;19.054;2022-07-23T00:50:20;10.10;;;9.10;;
58758;SDS011;46777;47.482;19.054;2022-07-23T00:53:05;9.57;;;8.52;;
58758;SDS011;46777;47.482;19.054;2022-07-23T00:55:50;9.25;;;8.35;;
58758;SDS011;46777;47.482;19.054;2022-07-23T00:58:35;10.68;;;9.40;;
58758;SDS011;46777;47.482;19.054;2022-07-23T01:01:20;9.70;;;8.70;;
58758;SDS011;46777;47.482;19.054;2022-07-23T01:04:05;9.55;;;8.55;;
58758;SDS011;46777;47.482;19.054;2022-07-23T01:06:50;10.40;;;9.30;;
58758;SDS011;46777;47.482;19.054;2022-07-23T01:09:35;12.52;;;10.77;;
58758;SDS011;46777;47.482;19.054;2022-07-23T01:12:21;11.00;;;9.77;;
58758;SDS011;46777;47.482;19.054;2022-07-23T01:15:05;11.45;;;9.30;;
58758;SDS011;46777;47.482;19.054;2022-07-23T01:17:50;10.10;;;9.10;;
58758;SDS011;46777;47.482;19.054;2022-07-23T01:20:36;10.77;;;9.52;;
58758;SDS011;46777;47.482;19.054;2022-07-23T01:23:21;11.95;;;10.00;;
58758;SDS011;46777;47.482;19.054;2022-07-23T01:26:06;10.45;;;9.30;;
58758;SDS011;46777;47.482;19.054;2022-07-23T01:28:50;10.57;;;9.45;;
58758;SDS011;46777;47.482;19.054;2022-07-23T01:31:35;10.88;;;9.27;;
58758;SDS011;46777;47.482;19.054;2022-07-23T01:34:20;11.40;;;10.00;;
58758;SDS011;46777;47.482;19.054;2022-07-23T01:37:05;10.77;;;9.52;;
58758;SDS011;46777;47.482;19.054;2022-07-23T01:39:49;10.70;;;9.70;;
58758;SDS011;46777;47.482;19.054;2022-07-23T01:42:34;10.60;;;9.50;;
58758;SDS011;46777;47.482;19.054;2022-07-23T01:45:20;11.00;;;9.90;;
58758;SDS011;46777;47.482;19.054;2022-07-23T01:48:05;12.05;;;10.35;;
58758;SDS011;46777;47.482;19.054;2022-07-23T01:50:51;11.13;;;9.63;;
58758;SDS011;46777;47.482;19.054;2022-07-23T01:53:35;11.48;;;10.38;;
58758;SDS011;46777;47.482;19.054;2022-07-23T01:56:20;11.00;;;9.85;;
58758;SDS011;46777;47.482;19.054;2022-07-23T01:59:05;11.05;;;9.63;;
58758;SDS011;46777;47.482;19.054;2022-07-23T02:01:50;12.57;;;10.05;;
58758;SDS011;46777;47.482;19.054;2022-07-23T02:04:35;11.55;;;9.82;;
58758;SDS011;46777;47.482;19.054;2022-07-23T02:07:20;12.05;;;10.30;;
58758;SDS011;46777;47.482;19.054;2022-07-23T02:10:05;13.95;;;10.63;;
58758;SDS011;46777;47.482;19.054;2022-07-23T02:12:50;13.05;;;11.20;;
58758;SDS011;46777;47.482;19.054;2022-07-23T02:15:35;13.00;;;11.20;;
58758;SDS011;46777;47.482;19.054;2022-07-23T02:18:20;13.43;;;10.38;;
58758;SDS011;46777;47.482;19.054;2022-07-23T02:21:05;12.73;;;11.05;;
58758;SDS011;46777;47.482;19.054;2022-07-23T02:23:50;15.10;;;10.50;;
58758;SDS011;46777;47.482;19.054;2022-07-23T02:26:35;11.63;;;10.48;;
58758;SDS011;46777;47.482;19.054;2022-07-23T02:29:19;14.73;;;10.60;;
58758;SDS011;46777;47.482;19.054;2022-07-23T02:32:04;11.05;;;9.82;;
58758;SDS011;46777;47.482;19.054;2022-07-23T02:34:49;10.75;;;9.60;;
58758;SDS011;46777;47.482;19.054;2022-07-23T02:37:35;12.93;;;10.15;;
58758;SDS011;46777;47.482;19.054;2022-07-23T02:40:20;11.13;;;10.10;;
58758;SDS011;46777;47.482;19.054;2022-07-23T02:43:04;10.70;;;9.65;;
58758;SDS011;46777;47.482;19.054;2022-07-23T02:45:49;10.63;;;9.52;;
58758;SDS011;46777;47.482;19.054;2022-07-23T02:48:34;13.95;;;9.90;;
58758;SDS011;46777;47.482;19.054;2022-07-23T02:51:19;11.10;;;9.48;;
58758;SDS011;46777;47.482;19.054;2022-07-23T02:54:04;10.93;;;9.93;;
58758;SDS011;46777;47.482;19.054;2022-07-23T02:56:49;10.85;;;9.75;;
58758;SDS011;46777;47.482;19.054;2022-07-23T02:59:35;11.07;;;10.05;;
58758;SDS011;46777;47.482;19.054;2022-07-23T03:02:20;11.18;;;10.05;;
58758;SDS011;46777;47.482;19.054;2022-07-23T03:05:05;11.35;;;10.25;;
58758;SDS011;46777;47.482;19.054;2022-07-23T03:07:50;10.93;;;9.93;;
58758;SDS011;46777;47.482;19.054;2022-07-23T03:10:34;10.45;;;9.63;;
58758;SDS011;46777;47.482;19.054;2022-07-23T03:13:19;11.63;;;10.13;;
58758;SDS011;46777;47.482;19.054;2022-07-23T03:16:04;11.35;;;10.30;;
58758;SDS011;46777;47.482;19.054;2022-07-23T03:18:49;11.32;;;9.90;;
58758;SDS011;46777;47.482;19.054;2022-07-23T03:21:34;11.25;;;10.25;;
58758;SDS011;46777;47.482;19.054;2022-07-23T03:24:23;10.55;;;9.55;;
58758;SDS011;46777;47.482;19.054;2022-07-23T03:27:28;10.38;;;9.48;;
58758;SDS011;46777;47.482;19.054;2022-07-23T03:30:14;10.85;;;9.85;;
58758;SDS011;46777;47.482;19.054;2022-07-23T03:32:59;11.25;;;10.10;;
58758;SDS011;46777;47.482;19.054;2022-07-23T03:35:44;12.23;;;11.05;;
58758;SDS011;46777;47.482;19.054;2022-07-23T03:38:30;11.23;;;10.32;;
58758;SDS011;46777;47.482;19.054;2022-07-23T03:41:15;11.57;;;10.35;;
58758;SDS011;46777;47.482;19.054;2022-07-23T03:43:59;11.82;;;10.60;;
58758;SDS011;46777;47.482;19.054;2022-07-23T03:46:44;11.00;;;9.95;;
58758;SDS011;46777;47.482;19.054;2022-07-23T03:49:29;11.40;;;10.30;;
58758;SDS011;46777;47.482;19.054;2022-07-23T03:52:14;11.63;;;10.40;;
58758;SDS011;46777;47.482;19.054;2022-07-23T03:55:00;11.25;;;10.20;;
58758;SDS011;46777;47.482;19.054;2022-07-23T03:57:45;11.07;;;9.98;;
58758;SDS011;46777;47.482;19.054;2022-07-23T04:00:30;11.73;;;10.35;;
58758;SDS011;46777;47.482;19.054;2022-07-23T04:03:14;13.02;;;10.30;;
58758;SDS011;46777;47.482;19.054;2022-07-23T04:05:59;11.20;;;10.20;;
58758;SDS011;46777;47.482;19.054;2022-07-23T04:08:44;11.32;;;10.23;;
58758;SDS011;46777;47.482;19.054;2022-07-23T04:11:29;12.18;;;11.05;;
58758;SDS011;46777;47.482;19.054;2022-07-23T04:14:14;11.40;;;10.30;;
58758;SDS011;46777;47.482;19.054;2022-07-23T04:16:59;11.68;;;10.55;;
58758;SDS011;46777;47.482;19.054;2022-07-23T04:19:43;11.73;;;10.43;;
58758;SDS011;46777;47.482;19.054;2022-07-23T04:22:28;11.70;;;10.50;;
58758;SDS011;46777;47.482;19.054;2022-07-23T04:25:13;11.73;;;10.52;;
58758;SDS011;46777;47.482;19.054;2022-07-23T04:28:00;11.75;;;10.50;;
58758;SDS011;46777;47.482;19.054;2022-07-23T04:30:45;12.27;;;11.07;;
58758;SDS011;46777;47.482;19.054;2022-07-23T04:33:30;12.13;;;11.02;;
58758;SDS011;46777;47.482;19.054;2022-07-23T04:36:15;11.98;;;10.88;;
58758;SDS011;46777;47.482;19.054;2022-07-23T04:39:00;13.38;;;11.13;;
58758;SDS011;46777;47.482;19.054;2022-07-23T04:41:45;12.55;;;11.18;;
58758;SDS011;46777;47.482;19.054;2022-07-23T04:44:30;12.98;;;10.88;;
58758;SDS011;46777;47.482;19.054;2022-07-23T04:47:15;14.65;;;11.20;;
58758;SDS011;46777;47.482;19.054;2022-07-23T04:50:00;11.73;;;10.63;;
58758;SDS011;46777;47.482;19.054;2022-07-23T04:52:44;12.15;;;10.95;;
58758;SDS011;46777;47.482;19.054;2022-07-23T04:55:29;12.32;;;11.02;;
58758;SDS011;46777;47.482;19.054;2022-07-23T04:58:14;12.93;;;11.32;;
58758;SDS011;46777;47.482;19.054;2022-07-23T05:00:59;11.70;;;10.60;;
58758;SDS011;46777;47.482;19.054;2022-07-23T05:03:44;12.25;;;11.10;;
58758;SDS011;46777;47.482;19.054;2022-07-23T05:06:28;11.40;;;10.40;;
58758;SDS011;46777;47.482;19.054;2022-07-23T05:09:13;11.30;;;10.23;;
58758;SDS011;46777;47.482;19.054;2022-07-23T05:11:58;11.93;;;10.75;;
58758;SDS011;46777;47.482;19.054;2022-07-23T05:14:43;11.68;;;10.50;;
58758;SDS011;46777;47.482;19.054;2022-07-23T05:17:28;11.85;;;10.75;;
58758;SDS011;46777;47.482;19.054;2022-07-23T05:20:13;11.80;;;9.93;;
58758;SDS011;46777;47.482;19.054;2022-07-23T05:22:57;11.77;;;10.57;;
58758;SDS011;46777;47.482;19.054;2022-07-23T05:25:42;11.27;;;10.07;;
58758;SDS011;46777;47.482;19.054;2022-07-23T05:28:27;14.40;;;10.23;;
58758;SDS011;46777;47.482;19.054;2022-07-23T05:31:12;11.30;;;10.30;;
58758;SDS011;46777;47.482;19.054;2022-07-23T05:33:57;12.15;;;10.95;;
58758;SDS011;46777;47.482;19.054;2022-07-23T05:36:42;12.23;;;10.90;;
58758;SDS011;46777;47.482;19.054;2022-07-23T05:39:26;13.25;;;11.07;;
58758;SDS011;46777;47.482;19.054;2022-07-23T05:42:11;11.75;;;10.65;;
58758;SDS011;46777;47.482;19.054;2022-07-23T05:44:56;11.80;;;10.68;;
58758;SDS011;46777;47.482;19.054;2022-07-23T05:47:42;11.70;;;10.50;;
58758;SDS011;46777;47.482;19.054;2022-07-23T05:50:27;11.02;;;9.90;;
58758;SDS011;46777;47.482;19.054;2022-07-23T05:53:13;15.25;;;10.75;;
58758;SDS011;46777;47.482;19.054;2022-07-23T05:55:57;11.10;;;10.00;;
58758;SDS011;46777;47.482;19.054;2022-07-23T05:58:42;11.80;;;9.93;;
58758;SDS011;46777;47.482;19.054;2022-07-23T06:01:27;11.60;;;10.48;;
58758;SDS011;46777;47.482;19.054;2022-07-23T06:04:12;11.48;;;10.15;;
58758;SDS011;46777;47.482;19.054;2022-07-23T06:06:58;12.40;;;9.55;;
58758;SDS011;46777;47.482;19.054;2022-07-23T06:09:43;11.00;;;9.90;;
58758;SDS011;46777;47.482;19.054;2022-07-23T06:12:28;11.32;;;10.10;;
58758;SDS011;46777;47.482;19.054;2022-07-23T06:15:12;12.73;;;10.18;;
58758;SDS011;46777;47.482;19.054;2022-07-23T06:17:58;10.85;;;9.85;;
58758;SDS011;46777;47.482;19.054;2022-07-23T06:20:42;12.30;;;9.68;;
58758;SDS011;46777;47.482;19.054;2022-07-23T06:23:27;10.85;;;9.73;;
58758;SDS011;46777;47.482;19.054;2022-07-23T06:26:12;11.38;;;10.18;;
58758;SDS011;46777;47.482;19.054;2022-07-23T06:28:57;11.50;;;10.15;;
58758;SDS011;46777;47.482;19.054;2022-07-23T06:31:42;10.63;;;9.60;;
58758;SDS011;46777;47.482;19.054;2022-07-23T06:34:26;11.15;;;9.88;;
58758;SDS011;46777;47.482;19.054;2022-07-23T06:37:11;11.30;;;10.15;;
58758;SDS011;46777;47.482;19.054;2022-07-23T06:39:56;11.48;;;9.70;;
58758;SDS011;46777;47.482;19.054;2022-07-23T06:42:41;11.73;;;9.75;;
58758;SDS011;46777;47.482;19.054;2022-07-23T06:45:26;10.50;;;9.35;;
58758;SDS011;46777;47.482;19.054;2022-07-23T06:48:11;10.40;;;9.35;;
58758;SDS011;46777;47.482;19.054;2022-07-23T06:50:55;10.73;;;8.80;;
58758;SDS011;46777;47.482;19.054;2022-07-23T06:53:40;12.43;;;9.75;;
58758;SDS011;46777;47.482;19.054;2022-07-23T06:56:25;11.07;;;8.65;;
58758;SDS011;46777;47.482;19.054;2022-07-23T06:59:10;11.38;;;9.30;;
58758;SDS011;46777;47.482;19.054;2022-07-23T07:01:55;10.25;;;9.25;;
58758;SDS011;46777;47.482;19.054;2022-07-23T07:04:41;11.00;;;9.50;;
58758;SDS011;46777;47.482;19.054;2022-07-23T07:07:26;10.68;;;9.68;;
58758;SDS011;46777;47.482;19.054;2022-07-23T07:10:10;11.82;;;9.45;;
58758;SDS011;46777;47.482;19.054;2022-07-23T07:12:55;10.88;;;9.90;;
58758;SDS011;46777;47.482;19.054;2022-07-23T07:15:40;11.82;;;9.98;;
58758;SDS011;46777;47.482;19.054;2022-07-23T07:18:25;12.65;;;9.93;;
58758;SDS011;46777;47.482;19.054;2022-07-23T07:21:10;11.77;;;9.40;;
58758;SDS011;46777;47.482;19.054;2022-07-23T07:23:55;12.98;;;10.00;;
58758;SDS011;46777;47.482;19.054;2022-07-23T07:26:39;12.30;;;10.20;;
58758;SDS011;46777;47.482;19.054;2022-07-23T07:29:24;11.82;;;9.48;;
58758;SDS011;46777;47.482;19.054;2022-07-23T07:32:09;11.93;;;9.98;;
58758;SDS011;46777;47.482;19.054;2022-07-23T07:34:54;10.32;;;9.32;;
58758;SDS011;46777;47.482;19.054;2022-07-23T07:37:39;13.68;;;9.70;;
58758;SDS011;46777;47.482;19.054;2022-07-23T07:40:23;11.05;;;9.77;;
58758;SDS011;46777;47.482;19.054;2022-07-23T07:43:08;10.13;;;9.15;;
58758;SDS011;46777;47.482;19.054;2022-07-23T07:45:53;11.75;;;9.95;;
58758;SDS011;46777;47.482;19.054;2022-07-23T07:48:38;14.48;;;9.40;;
58758;SDS011;46777;47.482;19.054;2022-07-23T07:51:22;11.73;;;9.40;;
58758;SDS011;46777;47.482;19.054;2022-07-23T07:54:07;11.50;;;9.57;;
58758;SDS011;46777;47.482;19.054;2022-07-23T07:56:52;13.38;;;10.43;;
58758;SDS011;46777;47.482;19.054;2022-07-23T07:59:37;10.48;;;9.15;;
58758;SDS011;46777;47.482;19.054;2022-07-23T08:02:22;12.68;;;9.75;;
58758;SDS011;46777;47.482;19.054;2022-07-23T08:05:06;14.75;;;9.55;;
58758;SDS011;46777;47.482;19.054;2022-07-23T08:07:52;12.05;;;9.60;;
58758;SDS011;46777;47.482;19.054;2022-07-23T08:10:36;11.25;;;10.02;;
58758;SDS011;46777;47.482;19.054;2022-07-23T08:13:21;14.93;;;10.02;;
58758;SDS011;46777;47.482;19.054;2022-07-23T08:16:06;11.18;;;9.25;;
58758;SDS011;46777;47.482;19.054;2022-07-23T08:18:51;15.10;;;9.02;;
58758;SDS011;46777;47.482;19.054;2022-07-23T08:21:35;10.52;;;9.57;;
58758;SDS011;46777;47.482;19.054;2022-07-23T08:24:20;14.15;;;9.48;;
58758;SDS011;46777;47.482;19.054;2022-07-23T08:27:06;10.02;;;9.02;;
58758;SDS011;46777;47.482;19.054;2022-07-23T08:29:51;10.20;;;9.20;;
58758;SDS011;46777;47.482;19.054;2022-07-23T08:35:43;9.02;;;8.15;;
58758;SDS011;46777;47.482;19.054;2022-07-23T08:38:30;9.25;;;8.32;;
58758;SDS011;46777;47.482;19.054;2022-07-23T08:41:15;10.95;;;9.38;;
58758;SDS011;46777;47.482;19.054;2022-07-23T08:44:00;11.77;;;9.48;;
58758;SDS011;46777;47.482;19.054;2022-07-23T08:46:46;10.90;;;9.48;;
58758;SDS011;46777;47.482;19.054;2022-07-23T08:49:31;10.32;;;9.18;;
58758;SDS011;46777;47.482;19.054;2022-07-23T08:52:16;10.07;;;9.15;;
58758;SDS011;46777;47.482;19.054;2022-07-23T08:55:01;10.30;;;9.27;;
58758;SDS011;46777;47.482;19.054;2022-07-23T08:57:47;10.73;;;9.20;;
58758;SDS011;46777;47.482;19.054;2022-07-23T09:00:33;10.05;;;9.05;;
58758;SDS011;46777;47.482;19.054;2022-07-23T09:03:19;9.68;;;8.68;;
58758;SDS011;46777;47.482;19.054;2022-07-23T09:06:06;10.52;;;8.30;;
58758;SDS011;46777;47.482;19.054;2022-07-23T09:08:51;9.63;;;8.73;;
58758;SDS011;46777;47.482;19.054;2022-07-23T09:11:36;11.07;;;8.85;;
58758;SDS011;46777;47.482;19.054;2022-07-23T09:14:35;9.50;;;8.70;;
58758;SDS011;46777;47.482;19.054;2022-07-23T09:20:27;11.57;;;8.98;;
58758;SDS011;46777;47.482;19.054;2022-07-23T09:23:13;11.95;;;8.50;;
58758;SDS011;46777;47.482;19.054;2022-07-23T09:25:57;9.57;;;8.57;;
58758;SDS011;46777;47.482;19.054;2022-07-23T09:29:04;13.23;;;9.63;;
58758;SDS011;46777;47.482;19.054;2022-07-23T09:32:18;10.73;;;8.68;;
58758;SDS011;46777;47.482;19.054;2022-07-23T09:35:02;9.18;;;8.30;;
58758;SDS011;46777;47.482;19.054;2022-07-23T09:38:00;11.38;;;8.68;;
58758;SDS011;46777;47.482;19.054;2022-07-23T09:40:46;9.38;;;8.45;;
58758;SDS011;46777;47.482;19.054;2022-07-23T09:43:31;10.07;;;8.57;;
58758;SDS011;46777;47.482;19.054;2022-07-23T09:46:21;9.48;;;8.43;;
58758;SDS011;46777;47.482;19.054;2022-07-23T09:49:11;13.00;;;8.95;;
58758;SDS011;46777;47.482;19.054;2022-07-23T09:51:59;9.60;;;8.80;;
58758;SDS011;46777;47.482;19.054;2022-07-23T09:54:46;9.88;;;8.35;;
58758;SDS011;46777;47.482;19.054;2022-07-23T09:57:41;10.40;;;9.10;;
58758;SDS011;46777;47.482;19.054;2022-07-23T10:00:29;10.13;;;9.13;;
58758;SDS011;46777;47.482;19.054;2022-07-23T10:03:15;14.23;;;9.30;;
58758;SDS011;46777;47.482;19.054;2022-07-23T10:06:01;10.90;;;9.05;;
58758;SDS011;46777;47.482;19.054;2022-07-23T10:08:46;11.73;;;8.85;;
58758;SDS011;46777;47.482;19.054;2022-07-23T10:11:32;9.82;;;8.57;;
58758;SDS011;46777;47.482;19.054;2022-07-23T10:14:18;10.13;;;9.00;;
58758;SDS011;46777;47.482;19.054;2022-07-23T10:17:03;9.82;;;8.85;;
58758;SDS011;46777;47.482;19.054;2022-07-23T10:19:48;9.90;;;8.90;;
58758;SDS011;46777;47.482;19.054;2022-07-23T10:22:44;10.38;;;9.38;;
58758;SDS011;46777;47.482;19.054;2022-07-23T10:25:42;14.40;;;9.20;;
58758;SDS011;46777;47.482;19.054;2022-07-23T10:31:46;11.73;;;9.55;;
58758;SDS011;46777;47.482;19.054;2022-07-23T10:34:52;10.57;;;9.50;;
58758;SDS011;46777;47.482;19.054;2022-07-23T10:37:49;10.40;;;9.35;;
58758;SDS011;46777;47.482;19.054;2022-07-23T10:40:37;10.90;;;9.02;;
58758;SDS011;46777;47.482;19.054;2022-07-23T10:43:39;10.23;;;9.23;;
58758;SDS011;46777;47.482;19.054;2022-07-23T10:46:25;10.05;;;9.02;;
58758;SDS011;46777;47.482;19.054;2022-07-23T10:49:31;11.25;;;9.43;;
58758;SDS011;46777;47.482;19.054;2022-07-23T10:52:18;10.70;;;8.63;;
58758;SDS011;46777;47.482;19.054;2022-07-23T10:57:54;9.80;;;8.90;;
58758;SDS011;46777;47.482;19.054;2022-07-23T11:00:39;9.70;;;8.80;;
58758;SDS011;46777;47.482;19.054;2022-07-23T11:03:31;9.93;;;8.95;;
58758;SDS011;46777;47.482;19.054;2022-07-23T11:06:20;10.15;;;8.98;;
58758;SDS011;46777;47.482;19.054;2022-07-23T11:15:06;11.75;;;9.10;;
58758;SDS011;46777;47.482;19.054;2022-07-23T11:17:59;9.98;;;9.07;;
58758;SDS011;46777;47.482;19.054;2022-07-23T11:20:44;12.10;;;8.80;;
58758;SDS011;46777;47.482;19.054;2022-07-23T11:24:04;10.00;;;9.00;;
58758;SDS011;46777;47.482;19.054;2022-07-23T11:26:48;10.02;;;9.02;;
58758;SDS011;46777;47.482;19.054;2022-07-23T11:32:24;10.05;;;9.23;;
58758;SDS011;46777;47.482;19.054;2022-07-23T11:35:19;10.55;;;9.65;;
58758;SDS011;46777;47.482;19.054;2022-07-23T11:38:06;12.07;;;9.25;;
58758;SDS011;46777;47.482;19.054;2022-07-23T11:40:57;9.88;;;9.07;;
58758;SDS011;46777;47.482;19.054;2022-07-23T11:43:42;10.45;;;9.38;;
58758;SDS011;46777;47.482;19.054;2022-07-23T11:46:27;10.05;;;9.13;;
58758;SDS011;46777;47.482;19.054;2022-07-23T11:49:12;10.27;;;9.07;;
58758;SDS011;46777;47.482;19.054;2022-07-23T11:52:10;10.00;;;9.02;;
58758;SDS011;46777;47.482;19.054;2022-07-23T11:54:57;10.20;;;9.40;;
58758;SDS011;46777;47.482;19.054;2022-07-23T11:57:50;12.43;;;9.98;;
58758;SDS011;46777;47.482;19.054;2022-07-23T12:00:39;10.70;;;9.63;;
58758;SDS011;46777;47.482;19.054;2022-07-23T12:03:24;9.95;;;9.07;;
58758;SDS011;46777;47.482;19.054;2022-07-23T12:06:09;10.55;;;9.65;;
58758;SDS011;46777;47.482;19.054;2022-07-23T12:08:54;11.27;;;10.18;;
58758;SDS011;46777;47.482;19.054;2022-07-23T12:11:55;10.48;;;9.55;;
58758;SDS011;46777;47.482;19.054;2022-07-23T12:17:38;11.90;;;10.90;;
58758;SDS011;46777;47.482;19.054;2022-07-23T12:20:29;11.95;;;10.95;;
58758;SDS011;46777;47.482;19.054;2022-07-23T12:23:17;11.55;;;10.75;;
58758;SDS011;46777;47.482;19.054;2022-07-23T12:26:02;14.02;;;10.75;;
58758;SDS011;46777;47.482;19.054;2022-07-23T12:28:51;11.25;;;10.35;;
58758;SDS011;46777;47.482;19.054;2022-07-23T12:31:37;11.75;;;10.02;;
58758;SDS011;46777;47.482;19.054;2022-07-23T12:34:22;12.43;;;10.30;;
58758;SDS011;46777;47.482;19.054;2022-07-23T12:37:07;11.18;;;10.23;;
58758;SDS011;46777;47.482;19.054;2022-07-23T12:39:52;19.15;;;17.65;;
58758;SDS011;46777;47.482;19.054;2022-07-23T12:42:43;13.00;;;11.90;;
58758;SDS011;46777;47.482;19.054;2022-07-23T12:45:28;12.48;;;11.60;;
58758;SDS011;46777;47.482;19.054;2022-07-23T12:48:38;13.00;;;12.00;;
58758;SDS011;46777;47.482;19.054;2022-07-23T12:51:34;15.35;;;14.45;;
58758;SDS011;46777;47.482;19.054;2022-07-23T12:54:27;15.05;;;14.15;;
58758;SDS011;46777;47.482;19.054;2022-07-23T12:57:12;16.45;;;15.40;;
58758;SDS011;46777;47.482;19.054;2022-07-23T13:00:07;17.98;;;16.98;;
58758;SDS011;46777;47.482;19.054;2022-07-23T13:02:55;21.30;;;19.83;;
58758;SDS011;46777;47.482;19.054;2022-07-23T13:05:40;17.58;;;16.58;;
58758;SDS011;46777;47.482;19.054;2022-07-23T13:08:25;18.30;;;17.10;;
58758;SDS011;46777;47.482;19.054;2022-07-23T13:11:11;12.75;;;11.85;;
58758;SDS011;46777;47.482;19.054;2022-07-23T13:13:57;11.18;;;10.23;;
58758;SDS011;46777;47.482;19.054;2022-07-23T13:16:45;9.90;;;9.20;;
58758;SDS011;46777;47.482;19.054;2022-07-23T13:19:30;9.80;;;8.98;;
58758;SDS011;46777;47.482;19.054;2022-07-23T13:22:14;10.77;;;9.45;;
58758;SDS011;46777;47.482;19.054;2022-07-23T13:24:59;10.27;;;9.27;;
58758;SDS011;46777;47.482;19.054;2022-07-23T13:27:44;10.23;;;9.23;;
58758;SDS011;46777;47.482;19.054;2022-07-23T13:30:29;10.70;;;9.80;;
58758;SDS011;46777;47.482;19.054;2022-07-23T13:33:14;10.73;;;9.55;;
58758;SDS011;46777;47.482;19.054;2022-07-23T13:35:58;10.57;;;9.57;;
58758;SDS011;46777;47.482;19.054;2022-07-23T13:38:43;11.25;;;10.25;;
58758;SDS011;46777;47.482;19.054;2022-07-23T13:41:28;11.15;;;10.07;;
58758;SDS011;46777;47.482;19.054;2022-07-23T13:44:13;10.27;;;9.38;;
58758;SDS011;46777;47.482;19.054;2022-07-23T13:46:58;10.43;;;9.07;;
58758;SDS011;46777;47.482;19.054;2022-07-23T13:49:43;11.32;;;9.73;;
58758;SDS011;46777;47.482;19.054;2022-07-23T13:52:27;10.60;;;9.57;;
58758;SDS011;46777;47.482;19.054;2022-07-23T13:55:12;10.10;;;8.95;;
58758;SDS011;46777;47.482;19.054;2022-07-23T13:57:57;10.80;;;9.75;;
58758;SDS011;46777;47.482;19.054;2022-07-23T14:00:45;10.02;;;9.13;;
58758;SDS011;46777;47.482;19.054;2022-07-23T14:03:31;11.63;;;9.82;;
58758;SDS011;46777;47.482;19.054;2022-07-23T14:06:16;11.13;;;10.13;;
58758;SDS011;46777;47.482;19.054;2022-07-23T14:09:02;11.35;;;10.43;;
58758;SDS011;46777;47.482;19.054;2022-07-23T14:11:47;11.13;;;10.07;;
58758;SDS011;46777;47.482;19.054;2022-07-23T14:14:32;11.52;;;10.63;;
58758;SDS011;46777;47.482;19.054;2022-07-23T14:17:17;11.55;;;10.48;;
58758;SDS011;46777;47.482;19.054;2022-07-23T14:20:03;10.30;;;9.50;;
58758;SDS011;46777;47.482;19.054;2022-07-23T14:22:49;10.63;;;9.75;;
58758;SDS011;46777;47.482;19.054;2022-07-23T14:25:34;10.88;;;9.90;;
58758;SDS011;46777;47.482;19.054;2022-07-23T14:28:19;11.02;;;10.07;;
58758;SDS011;46777;47.482;19.054;2022-07-23T14:31:04;11.23;;;10.20;;
58758;SDS011;46777;47.482;19.054;2022-07-23T14:33:50;11.15;;;10.10;;
58758;SDS011;46777;47.482;19.054;2022-07-23T14:36:35;10.40;;;9.50;;
58758;SDS011;46777;47.482;19.054;2022-07-23T14:39:19;11.10;;;10.25;;
58758;SDS011;46777;47.482;19.054;2022-07-23T14:42:05;10.98;;;10.07;;
58758;SDS011;46777;47.482;19.054;2022-07-23T14:44:50;10.90;;;9.90;;
58758;SDS011;46777;47.482;19.054;2022-07-23T14:47:35;10.88;;;9.88;;
58758;SDS011;46777;47.482;19.054;2022-07-23T14:50:20;10.73;;;9.73;;
58758;SDS011;46777;47.482;19.054;2022-07-23T14:53:05;10.90;;;9.80;;
58758;SDS011;46777;47.482;19.054;2022-07-23T14:55:49;10.55;;;9.60;;
58758;SDS011;46777;47.482;19.054;2022-07-23T14:58:34;12.25;;;9.65;;
58758;SDS011;46777;47.482;19.054;2022-07-23T15:01:19;11.13;;;10.05;;
58758;SDS011;46777;47.482;19.054;2022-07-23T15:04:04;10.32;;;9.23;;
58758;SDS011;46777;47.482;19.054;2022-07-23T15:06:50;11.55;;;10.45;;
58758;SDS011;46777;47.482;19.054;2022-07-23T15:09:35;11.55;;;10.50;;
58758;SDS011;46777;47.482;19.054;2022-07-23T15:12:20;11.50;;;10.45;;
58758;SDS011;46777;47.482;19.054;2022-07-23T15:15:05;10.93;;;9.90;;
58758;SDS011;46777;47.482;19.054;2022-07-23T15:17:49;11.73;;;10.05;;
58758;SDS011;46777;47.482;19.054;2022-07-23T15:20:34;10.50;;;9.63;;
58758;SDS011;46777;47.482;19.054;2022-07-23T15:23:21;11.35;;;10.43;;
58758;SDS011;46777;47.482;19.054;2022-07-23T15:26:06;11.73;;;10.73;;
58758;SDS011;46777;47.482;19.054;2022-07-23T15:28:52;12.45;;;11.38;;
58758;SDS011;46777;47.482;19.054;2022-07-23T15:31:37;13.60;;;12.27;;
58758;SDS011;46777;47.482;19.054;2022-07-23T15:34:22;14.48;;;13.20;;
58758;SDS011;46777;47.482;19.054;2022-07-23T15:37:07;16.15;;;14.73;;
58758;SDS011;46777;47.482;19.054;2022-07-23T15:39:52;31.58;;;15.23;;
58758;SDS011;46777;47.482;19.054;2022-07-23T15:42:37;30.75;;;15.98;;
58758;SDS011;46777;47.482;19.054;2022-07-23T15:45:21;34.40;;;15.48;;
58758;SDS011;46777;47.482;19.054;2022-07-23T15:48:06;26.10;;;14.82;;
58758;SDS011;46777;47.482;19.054;2022-07-23T15:50:51;30.92;;;14.95;;
58758;SDS011;46777;47.482;19.054;2022-07-23T15:53:36;26.05;;;13.77;;
58758;SDS011;46777;47.482;19.054;2022-07-23T15:56:21;19.92;;;12.73;;
58758;SDS011;46777;47.482;19.054;2022-07-23T15:59:07;19.58;;;13.07;;
58758;SDS011;46777;47.482;19.054;2022-07-23T16:01:52;26.55;;;13.98;;
58758;SDS011;46777;47.482;19.054;2022-07-23T16:04:37;14.27;;;12.45;;
58758;SDS011;46777;47.482;19.054;2022-07-23T16:07:22;13.80;;;12.32;;
58758;SDS011;46777;47.482;19.054;2022-07-23T16:10:07;15.25;;;11.77;;
58758;SDS011;46777;47.482;19.054;2022-07-23T16:12:54;20.25;;;12.90;;
58758;SDS011;46777;47.482;19.054;2022-07-23T16:15:39;13.07;;;11.90;;
58758;SDS011;46777;47.482;19.054;2022-07-23T16:18:25;15.32;;;13.82;;
58758;SDS011;46777;47.482;19.054;2022-07-23T16:21:10;19.08;;;17.23;;
58758;SDS011;46777;47.482;19.054;2022-07-23T16:23:55;22.65;;;17.58;;
58758;SDS011;46777;47.482;19.054;2022-07-23T16:26:39;19.05;;;17.25;;
58758;SDS011;46777;47.482;19.054;2022-07-23T16:29:24;19.20;;;17.17;;
58758;SDS011;46777;47.482;19.054;2022-07-23T16:32:09;18.40;;;16.75;;